Flight Track Log - Related Links

Times and Time Zones

All times are in EDT time to prevent confusion due to time zone crossing. See the UAL407 flight status page for this flight to view local times or setup timezone preferences in your user account.

Time Position Orientation Groundspeed Altitude Reporting Facility
EDT Latitude Longitude Course Direction KTS MPH feet Rate Location/Type
Wed 06:08:35 PM 42.7297 -73.8081 283° West 135 155 1,300  Level Boston Center
Wed 06:09:36 PM 42.7022 -73.8469 226° Southwest 206 237 3,300 2,851 Climbing Boston Center
Wed 06:10:56 PM 42.7283 -73.9325 293° West 237 273 8,000 3,257 Climbing Boston Center
Wed 06:11:00 PM 42.8000 -74.1355 270° West  Level FlightAware Approximate
Wed 06:11:56 PM 42.7989 -73.9511 349° North 229 264 10,900  Level Boston Center
Wed 06:12:00 PM 42.8182 -74.2498 284° West  Level FlightAware Approximate
Wed 06:12:56 PM 42.8819 -73.9758 348° North 251 289 13,900  Level Boston Center
Wed 06:13:00 PM 42.8384 -74.3638 283° West  Level FlightAware Approximate
Wed 06:13:56 PM 42.9392 -74.0625 312° West 276 318 15,600  Level Boston Center
Wed 06:14:56 PM 42.9622 -74.1792 285° West 314 361 17,800 1,750 Climbing Boston Center
Wed 06:15:56 PM 42.9750 -74.3044 278° West 347 399 19,100 1,750 Climbing Boston Center
Wed 06:16:56 PM 42.9892 -74.4442 278° West 369 425 21,300 1,950 Climbing Boston Center
Wed 06:17:56 PM 43.0033 -74.5864 278° West 375 432 23,000 1,500 Climbing Boston Center
Wed 06:18:56 PM 43.0156 -74.7061 278° West 386 444 24,300 1,450 Climbing Boston Center
Wed 06:19:56 PM 43.0347 -74.8858 278° West 396 456 25,900 1,300 Climbing Boston Center
Wed 06:20:56 PM 43.0503 -75.0342 278° West 402 463 26,900 1,100 Climbing Boston Center
Wed 06:21:56 PM 43.0653 -75.1942 277° West 413 475 28,100 1,400 Climbing Boston Center
Wed 06:22:56 PM 43.0803 -75.3483 278° West 413 475 29,700 1,500 Climbing Boston Center
Wed 06:23:56 PM 43.0950 -75.4997 278° West 413 475 31,100 1,450 Climbing Boston Center
Wed 06:24:56 PM 43.1097 -75.6483 278° West 407 468 32,600 1,550 Climbing Boston Center
Wed 06:25:56 PM 43.1258 -75.8114 278° West 407 468 34,200 1,400 Climbing Boston Center
Wed 06:26:56 PM 43.1381 -75.9572 277° West 400 460 35,400 1,207 Climbing Boston Center
Wed 06:28:45 PM 43.1586 -76.1969 277° West 377 434 37,600 888 Climbing Cleveland Center
Wed 06:29:45 PM 43.1617 -76.3333 272° West 371 427 37,900 150 Climbing Cleveland Center
Wed 06:30:45 PM 43.1603 -76.4703 269° West 366 421 37,900  Level Cleveland Center
Wed 06:31:45 PM 43.1608 -76.6067 270° West 366 421 37,900 50 Level Cleveland Center
Wed 06:32:45 PM 43.1594 -76.7464 269° West 366 421 38,000 50 Climbing Cleveland Center
Wed 06:33:45 PM 43.1575 -76.8831 269° West 366 421 38,000  Level Cleveland Center
Wed 06:34:45 PM 43.1600 -77.0225 271° West 366 421 38,000  Level Cleveland Center
Wed 06:35:45 PM 43.1578 -77.1622 269° West 366 421 38,000  Level Cleveland Center
Wed 06:36:45 PM 43.1558 -77.3044 269° West 371 427 38,000  Level Cleveland Center
Wed 06:37:45 PM 43.1556 -77.4442 270° West 371 427 38,000  Level Cleveland Center
Wed 06:38:45 PM 43.1550 -77.5808 270° West 371 427 38,000  Level Cleveland Center
Wed 06:39:45 PM 43.1522 -77.7231 269° West 366 421 38,000  Level Cleveland Center
Wed 06:40:45 PM 43.1492 -77.8600 268° West 366 421 38,000  Level Cleveland Center
Wed 06:41:45 PM 43.1483 -77.9994 270° West 366 421 38,000  Level Cleveland Center
Wed 06:42:45 PM 43.1472 -78.1417 269° West 366 421 38,000  Level Cleveland Center
Wed 06:43:45 PM 43.1439 -78.2814 268° West 366 421 38,000  Level Cleveland Center
Wed 06:44:45 PM 43.1425 -78.4208 269° West 366 421 38,000  Level Cleveland Center
Wed 06:45:45 PM 43.1386 -78.5603 268° West 366 421 38,000  Level Cleveland Center
Wed 06:46:45 PM 43.1347 -78.7000 268° West 366 421 38,000  Level Cleveland Center
Wed 06:47:45 PM 43.1286 -78.8394 267° West 366 421 38,000  Level Cleveland Center
Wed 06:48:45 PM 43.1264 -78.9847 269° West 371 427 38,000 -45 Level Cleveland Center
Wed 06:49:58 PM 43.1167 -79.1500 265° West 370 426 37,900  Descending Toronto Center
Wed 06:50:58 PM 43.1000 -79.2833 260° West 370 426 38,000 50 Climbing Toronto Center
Wed 06:51:58 PM 43.1000 -79.4333 270° West 380 437 38,000  Level Toronto Center
Wed 06:52:58 PM 43.1000 -79.5667 270° West 370 426 38,000  Level Toronto Center
Wed 06:53:58 PM 43.0833 -79.7000 260° West 370 426 38,000 -50 Level Toronto Center
Wed 06:54:58 PM 43.0833 -79.8333 270° West 370 426 37,900  Descending Toronto Center
Wed 06:55:58 PM 43.0833 -80.0000 270° West 370 426 38,000 50 Climbing Toronto Center
Wed 06:56:58 PM 43.0667 -80.1333 260° West 370 426 38,000  Level Toronto Center
Wed 06:57:58 PM 43.0667 -80.2667 270° West 370 426 38,000  Level Toronto Center
Wed 06:58:58 PM 43.0667 -80.4333 270° West 370 426 38,000  Level Toronto Center
Wed 06:59:58 PM 43.0667 -80.5667 270° West 370 426 38,000  Level Toronto Center
Wed 07:00:58 PM 43.0500 -80.7000 260° West 370 426 38,000  Level Toronto Center
Wed 07:01:58 PM 43.0333 -80.8500 261° West 370 426 38,000  Level Toronto Center
Wed 07:02:58 PM 43.0333 -80.9833 270° West 370 426 38,000  Level Toronto Center
Wed 07:03:58 PM 43.0167 -81.1167 260° West 370 426 38,000  Level Toronto Center
Wed 07:04:58 PM 43.0167 -81.2500 270° West 370 426 38,000  Level Toronto Center
Wed 07:05:58 PM 43.0167 -81.4167 270° West 370 426 38,000  Level Toronto Center
Wed 07:06:58 PM 43.0167 -81.5500 270° West 370 426 38,000  Level Toronto Center
Wed 07:07:58 PM 43.0167 -81.6833 270° West 370 426 38,000  Level Toronto Center
Wed 07:08:58 PM 43.0167 -81.8167 270° West 370 426 38,000  Level Toronto Center
Wed 07:09:58 PM 43.0000 -81.9667 261° West 370 426 38,000  Level Toronto Center
Wed 07:10:58 PM 43.0000 -82.1000 270° West 370 426 38,000  Level Toronto Center
Wed 07:11:58 PM 43.0000 -82.2333 270° West 370 426 38,000  Level Toronto Center
Wed 07:12:58 PM 43.0000 -82.3833 270° West 370 426 38,000  Level Toronto Center
Wed 07:13:58 PM 43.0000 -82.5333 270° West 370 426 38,000  Level Toronto Center
Wed 07:14:58 PM 42.9833 -82.6667 260° West 370 426 38,000 -189 Level Toronto Center
Wed 07:15:33 PM 43.0006 -82.7464 286° West 375 432 37,700 -821 Descending Cleveland Center
Wed 07:16:33 PM 42.9978 -82.8911 269° West 381 438 36,700 -1,000 Descending Cleveland Center
Wed 07:17:33 PM 42.9906 -83.0328 266° West 386 444 35,700 -950 Descending Cleveland Center
Wed 07:18:33 PM 42.9875 -83.1772 268° West 386 444 34,800 -950 Descending Cleveland Center
Wed 07:19:33 PM 42.9819 -83.3219 267° West 386 444 33,800 -1,000 Descending Cleveland Center
Wed 07:20:33 PM 42.9764 -83.4692 267° West 386 444 32,800 -900 Descending Cleveland Center
Wed 07:21:33 PM 42.9703 -83.6222 267° West 391 450 32,000 -400 Descending Cleveland Center
Wed 07:22:33 PM 42.9642 -83.7722 267° West 391 450 32,000  Level Cleveland Center
Wed 07:23:33 PM 42.9497 -83.9219 263° West 396 456 32,000  Level Cleveland Center
Wed 07:24:33 PM 42.9347 -84.0686 262° West 401 461 32,000  Level Cleveland Center
Wed 07:26:46 PM 42.9036 -84.3906 263° West 388 447 32,000 -31 Level Chicago Center
Wed 07:27:48 PM 42.8889 -84.5400 262° West 397 457 31,900 -532 Descending Chicago Center
Wed 07:28:50 PM 42.8728 -84.6872 262° West 396 456 30,900 -968 Descending Chicago Center
Wed 07:29:52 PM 42.8572 -84.8394 262° West 402 463 29,900 -1,065 Descending Chicago Center
Wed 07:30:54 PM 42.8386 -85.0200 262° West 402 463 28,700 -1,065 Descending Chicago Center
Wed 07:31:56 PM 42.8219 -85.1700 261° West 402 463 27,700 -1,016 Descending Chicago Center
Wed 07:32:58 PM 42.8058 -85.3164 262° West 395 455 26,600 -1,113 Descending Chicago Center
Wed 07:34:00 PM 42.7911 -85.4603 262° West 386 444 25,400 -1,113 Descending Chicago Center
Wed 07:35:02 PM 42.7686 -85.5994 258° West 379 436 24,300 -1,016 Descending Chicago Center
Wed 07:36:04 PM 42.7439 -85.7378 256° West 375 432 23,300 -968 Descending Chicago Center
Wed 07:37:06 PM 42.7189 -85.8731 256° West 370 426 22,300 -1,065 Descending Chicago Center
Wed 07:38:08 PM 42.6906 -86.0306 256° West 357 411 21,100 -1,113 Descending Chicago Center
Wed 07:39:10 PM 42.6994 -86.1597 275° West 343 395 20,000 -532 Descending Chicago Center
Wed 07:40:12 PM 42.7117 -86.2806 278° West 325 374 20,000  Level Chicago Center
Wed 07:41:14 PM 42.6753 -86.3967 247° West 332 382 20,000 -387 Level Chicago Center
Wed 07:42:16 PM 42.6394 -86.5114 247° West 332 382 19,200 -1,452 Descending Chicago Center
Wed 07:43:18 PM 42.6075 -86.6256 249° West 325 374 17,000 -1,968 Descending Chicago Center
Wed 07:44:21 PM 42.5914 -86.7383 259° West 307 353 15,100 -2,064 Descending Chicago Center
Wed 07:45:23 PM 42.5761 -86.8703 261° West 296 341 12,700 -1,984 Descending Chicago Center
Wed 07:46:25 PM 42.5642 -86.9783 262° West 291 335 11,000 -823 Descending Chicago Center
Wed 07:47:27 PM 42.5694 -87.0831 274° West 280 322 11,000 -242 Level Chicago Center
Wed 07:48:29 PM 42.5472 -87.1800 253° West 278 320 10,500 -968 Descending Chicago Center
Wed 07:49:31 PM 42.5047 -87.2567 233° Southwest 259 298 9,000 -726 Descending Chicago Center
Wed 07:50:33 PM 42.4731 -87.3425 243° Southwest 254 292 9,000  Level Chicago Center
Wed 07:51:35 PM 42.4392 -87.4397 245° Southwest 253 291 9,000 -48 Level Chicago Center
Wed 07:52:37 PM 42.4086 -87.5231 244° Southwest 251 289 8,900 -919 Descending Chicago Center
Wed 07:53:39 PM 42.3394 -87.5547 199° South 276 318 7,100 -1,839 Descending Chicago Center
Wed 07:54:41 PM 42.2644 -87.6031 206° Southwest 266 306 5,100 -1,500 Descending Chicago Center
Wed 07:55:43 PM 42.2064 -87.6631 217° Southwest 264 304 4,000 -532 Descending Chicago Center
Wed 07:56:45 PM 42.1514 -87.7256 220° Southwest 262 302 4,000 -336 Level Chicago Center
Wed 07:57:48 PM 42.1053 -87.7797 221° Southwest 235 270 3,300 -667 Descending Chicago Center

Login

Don't have an account? Register now (free) for customized features, flight alerts, and more!